Time;durP1;ratioP1;P1;durP2;ratioP2;P2;SDS_P1;SDS_P2;PMS_P1;PMS_P2;Temp;Humidity;BMP_temperature;BMP_pressure;BME280_temperature;BME280_humidity;BME280_pressure;Samples;Min_cycle;Max_cycle;Signal;HPM_P1;HPM_P2
2022/12/12 00:02:07;;;;;;;;;;;;;;;18.24;41.60;100644.34;5119635;27;20394;-45
2022/12/12 00:04:33;;;;;;;;;;;;;;;18.24;41.81;100646.28;5134163;28;19929;-44
2022/12/12 00:06:58;;;;;;;;;;;;;;;18.24;41.83;100643.53;5134708;28;19928;-43
2022/12/12 00:09:24;;;;;;;;;;;;;;;18.24;41.71;100647.09;5134552;28;19924;-43
2022/12/12 00:11:49;;;;;;;;;;;;;;;18.23;41.78;100648.22;5133695;28;19923;-44
2022/12/12 00:14:15;;;;;;;;;;;;;;;18.24;41.88;100660.06;5132930;27;19927;-43
2022/12/12 00:16:41;;;;;;;;;;;;;;;18.24;41.78;100655.38;5131878;27;19924;-43
2022/12/12 00:19:06;;;;;;;;;;;;;;;18.23;41.76;100662.00;5134717;28;19927;-44
2022/12/12 00:21:32;;;;;;;;;;;;;;;18.23;41.67;100650.16;5133828;28;20333;-44
2022/12/12 00:23:57;;;;;;;;;;;;;;;18.23;41.66;100667.50;5133701;28;19923;-45
2022/12/12 00:26:24;;;;;;;;;;;;;;;18.23;41.65;100659.25;5115518;28;19923;-44
2022/12/12 00:28:49;;;;;;;;;;;;;;;18.23;41.70;100650.16;5115956;28;19970;-44
2022/12/12 00:31:15;;;;;;;;;;;;;;;18.23;41.69;100656.50;5114633;28;19927;-43
2022/12/12 00:33:42;;;;;;;;;;;;;;;18.23;41.79;100659.25;5133835;28;19969;-43
2022/12/12 00:36:07;;;;;;;;;;;;;;;18.24;41.54;100660.06;5133719;28;20004;-44
2022/12/12 00:38:33;;;;;;;;;;;;;;;18.23;41.69;100661.19;5134450;28;19923;-44
2022/12/12 00:40:59;;;;;;;;;;;;;;;18.23;41.74;100658.41;5133642;28;19923;-43
2022/12/12 00:43:25;;;;;;;;;;;;;;;18.25;41.74;100661.72;5132109;27;20431;-44
2022/12/12 00:45:50;;;;;;;;;;;;;;;18.24;41.53;100665.56;5113132;28;20205;-44
2022/12/12 00:48:16;;;;;;;;;;;;;;;18.23;41.61;100662.00;5134217;28;19923;-44
2022/12/12 00:50:41;;;;;;;;;;;;;;;18.23;41.74;100663.94;5115710;28;19930;-44
2022/12/12 00:53:07;;;;;;;;;;;;;;;18.23;41.76;100658.41;5133840;28;19957;-46
2022/12/12 00:55:32;;;;;;;;;;;;;;;18.23;41.57;100658.41;5133064;28;19923;-44
2022/12/12 00:57:58;;;;;;;;;;;;;;;18.23;41.63;100659.25;5133625;28;19972;-44
2022/12/12 01:00:24;;;;;;;;;;;;;;;18.23;41.80;100662.00;5129036;28;20466;-43
2022/12/12 01:02:50;;;;;;;;;;;;;;;18.23;41.54;100667.50;5111745;28;19934;-43
2022/12/12 01:05:16;;;;;;;;;;;;;;;18.23;41.88;100652.91;5114518;28;19923;-44
2022/12/12 01:07:42;;;;;;;;;;;;;;;18.23;41.64;100667.50;5115374;28;19977;-43
2022/12/12 01:10:08;;;;;;;;;;;;;;;18.23;41.79;100663.94;5133485;28;20028;-46
2022/12/12 01:12:34;;;;;;;;;;;;;;;18.23;41.63;100669.44;5133807;28;19989;-45
2022/12/12 01:14:59;;;;;;;;;;;;;;;18.23;41.66;100667.50;5130978;27;20359;-44
2022/12/12 01:17:25;;;;;;;;;;;;;;;18.23;41.81;100669.44;5133100;28;19927;-45
2022/12/12 01:19:50;;;;;;;;;;;;;;;18.24;41.73;100676.59;5133834;28;19924;-43
2022/12/12 01:22:16;;;;;;;;;;;;;;;18.23;41.76;100678.53;5114741;28;19934;-43
2022/12/12 01:24:41;;;;;;;;;;;;;;;18.23;41.82;100677.72;5132513;28;19924;-43
2022/12/12 01:27:07;;;;;;;;;;;;;;;18.24;41.67;100682.94;5133567;28;20364;-44
2022/12/12 01:29:33;;;;;;;;;;;;;;;18.23;41.79;100678.53;5132711;28;19924;-44
2022/12/12 01:31:58;;;;;;;;;;;;;;;18.23;41.64;100694.25;5132830;28;19923;-45
2022/12/12 01:34:24;;;;;;;;;;;;;;;18.22;41.83;100698.94;5132810;28;20351;-44
2022/12/12 01:36:49;;;;;;;;;;;;;;;18.24;41.59;100695.91;5114801;28;19924;-44
2022/12/12 01:39:15;;;;;;;;;;;;;;;18.22;41.96;100687.91;5133675;28;20285;-46
2022/12/12 01:41:41;;;;;;;;;;;;;;;18.23;41.82;100695.06;5132619;27;19976;-43
2022/12/12 01:44:26;;;;;;;;;;;;;;;18.24;41.66;100693.13;5132311;27;19940;-46
2022/12/12 01:46:52;;;;;;;;;;;;;;;18.23;41.75;100695.06;5117719;28;20346;-45
2022/12/12 01:49:19;;;;;;;;;;;;;;;18.23;41.81;100694.25;5132618;28;19927;-44
2022/12/12 01:51:45;;;;;;;;;;;;;;;18.23;41.64;100694.25;5114586;28;19967;-44
2022/12/12 01:54:13;;;;;;;;;;;;;;;18.23;41.89;100703.34;5113962;28;19930;-43
2022/12/12 01:56:38;;;;;;;;;;;;;;;18.23;41.82;100699.75;5114453;28;19951;-45
2022/12/12 01:59:04;;;;;;;;;;;;;;;18.23;41.80;100695.06;5132789;28;20260;-45
2022/12/12 02:01:30;;;;;;;;;;;;;;;18.23;41.87;100694.25;5132630;28;19928;-44
2022/12/12 02:03:55;;;;;;;;;;;;;;;18.23;41.87;100700.59;5131447;27;19938;-43
2022/12/12 02:06:22;;;;;;;;;;;;;;;18.23;41.83;100697.00;5132551;28;19988;-43
2022/12/12 02:08:47;;;;;;;;;;;;;;;18.24;41.61;100706.91;5132494;28;19979;-44
2022/12/12 02:11:13;;;;;;;;;;;;;;;18.23;41.83;100700.59;5132654;28;20002;-45
2022/12/12 02:13:38;;;;;;;;;;;;;;;18.24;41.69;100702.22;5130635;27;19939;-43
2022/12/12 02:16:14;;;;;;;;;;;;;;;18.23;41.84;100706.09;5131420;28;19931;-43
2022/12/12 02:18:43;;;;;;;;;;;;;;;18.24;41.75;100712.44;5132453;28;19931;-43
2022/12/12 02:21:25;;;;;;;;;;;;;;;18.24;41.50;100701.41;5113769;28;19923;-45
2022/12/12 02:24:11;;;;;;;;;;;;;;;18.24;41.65;100701.41;5113344;28;19966;-44
2022/12/12 02:26:43;;;;;;;;;;;;;;;18.24;41.79;100701.41;5116559;28;19951;-44
2022/12/12 02:29:28;;;;;;;;;;;;;;;18.23;41.64;100691.50;5112808;28;20419;-45
2022/12/12 02:31:57;;;;;;;;;;;;;;;18.23;41.64;100705.28;5116529;28;20000;-42
2022/12/12 02:34:24;;;;;;;;;;;;;;;18.24;41.83;100698.66;5130924;28;20237;-45
2022/12/12 02:37:01;;;;;;;;;;;;;;;18.23;41.76;100697.84;5131512;28;20015;-44
2022/12/12 02:39:32;;;;;;;;;;;;;;;18.24;41.70;100701.41;5132329;28;19980;-45
2022/12/12 02:41:59;;;;;;;;;;;;;;;18.22;41.71;100701.69;5131322;28;19974;-46
2022/12/12 02:44:26;;;;;;;;;;;;;;;18.23;41.65;100699.75;5128876;27;19930;-45
2022/12/12 02:46:59;;;;;;;;;;;;;;;18.24;41.65;100704.16;5111991;28;19954;-45
2022/12/12 02:49:26;;;;;;;;;;;;;;;18.22;41.58;100698.94;5131799;28;19946;-44
2022/12/12 02:51:51;;;;;;;;;;;;;;;18.23;41.89;100697.00;5132178;28;19972;-44
2022/12/12 02:54:18;;;;;;;;;;;;;;;18.23;41.63;100697.00;5112613;28;19996;-43
2022/12/12 02:59:26;;;;;;;;;;;;;;;18.23;41.87;100689.56;5187124;27;19925;-45
2022/12/12 03:02:05;;;;;;;;;;;;;;;18.23;41.58;100697.84;5147593;27;19965;-45
2022/12/12 03:07:55;;;;;;;;;;;;;;;18.22;41.60;100700.84;5132918;27;20409;-45
2022/12/12 03:10:12;;;;;;;;;;;;;;;18.23;41.81;100706.09;5133499;27;19927;-43
2022/12/12 03:12:40;;;;;;;;;;;;;;;18.23;41.69;100703.34;5149143;27;20015;-43
2022/12/12 03:15:10;;;;;;;;;;;;;;;18.24;41.70;100701.41;5152226;27;19962;-45
2022/12/12 03:17:38;;;;;;;;;;;;;;;18.22;41.66;100700.84;5148221;27;19923;-47
2022/12/12 03:20:21;;;;;;;;;;;;;;;18.23;41.74;100699.75;5148814;27;19968;-44
2022/12/12 03:23:07;;;;;;;;;;;;;;;18.23;41.78;100708.84;5149220;27;20383;-44
2022/12/12 03:25:50;;;;;;;;;;;;;;;18.23;41.64;100699.75;5151926;27;19966;-44
2022/12/12 03:28:26;;;;;;;;;;;;;;;18.23;41.89;100699.75;5135242;27;19963;-43
2022/12/12 03:30:54;;;;;;;;;;;;;;;18.24;41.82;100701.41;5125300;27;20351;-44
2022/12/12 03:33:33;;;;;;;;;;;;;;;18.22;41.79;100700.84;5141225;27;19967;-44
2022/12/12 03:36:02;;;;;;;;;;;;;;;18.23;41.64;100705.28;5157450;27;19970;-44
2022/12/12 03:38:30;;;;;;;;;;;;;;;18.23;41.63;100703.34;5135638;27;20014;-44
2022/12/12 03:40:57;;;;;;;;;;;;;;;18.23;41.63;100708.03;5137046;27;20425;-44
2022/12/12 03:43:39;;;;;;;;;;;;;;;18.23;41.59;100702.53;5162807;27;20011;-44
2022/12/12 03:46:06;;;;;;;;;;;;;;;18.23;41.64;100702.53;5140291;27;19972;-44
2022/12/12 03:48:35;;;;;;;;;;;;;;;18.24;41.76;100704.16;5150006;27;20328;-44
2022/12/12 03:51:04;;;;;;;;;;;;;;;18.23;41.50;100706.09;5148301;27;19958;-44
2022/12/12 03:53:32;;;;;;;;;;;;;;;18.22;41.77;100703.59;5154145;27;19963;-44
2022/12/12 03:56:07;;;;;;;;;;;;;;;18.23;41.58;100703.34;5167946;27;19951;-45
2022/12/12 03:58:34;;;;;;;;;;;;;;;18.23;41.62;100708.84;5150515;27;19982;-43
2022/12/12 04:00:59;;;;;;;;;;;;;;;18.22;41.78;100712.72;5128267;27;20013;-44
2022/12/12 04:03:28;;;;;;;;;;;;;;;18.23;41.61;100719.88;5159183;27;19927;-44
2022/12/12 04:06:28;;;;;;;;;;;;;;;18.22;41.59;100714.63;5140664;27;20166;-44
2022/12/12 04:14:52;;;;;;;;;;;;;;;18.22;41.63;100729.25;5116791;27;20348;-44
2022/12/12 04:17:18;;;;;;;;;;;;;;;18.23;41.54;100727.31;5124761;27;20078;-45
2022/12/12 04:23:22;;;;;;;;;;;;;;;18.22;41.75;100729.25;5100917;28;19923;-43
2022/12/12 04:26:37;;;;;;;;;;;;;;;18.22;41.64;100732.03;5114553;28;20327;-46
2022/12/12 04:28:25;;;;;;;;;;;;;;;18.22;41.67;100725.66;5118498;28;19981;-44
2022/12/12 04:30:51;;;;;;;;;;;;;;;18.23;41.64;100724.56;5128946;28;19959;-45
2022/12/12 04:33:16;;;;;;;;;;;;;;;18.23;41.62;100730.09;5137880;27;19938;-45
2022/12/12 04:35:42;;;;;;;;;;;;;;;18.23;41.50;100735.59;5141692;27;19934;-43
2022/12/12 04:38:09;;;;;;;;;;;;;;;18.23;41.78;100738.34;5121768;28;19966;-43
2022/12/12 04:40:36;;;;;;;;;;;;;;;18.22;41.55;100744.94;5133378;28;20052;-43
2022/12/12 04:43:04;;;;;;;;;;;;;;;18.24;41.59;100745.50;5141739;27;20379;-48
2022/12/12 04:45:31;;;;;;;;;;;;;;;18.23;41.84;100747.44;5129324;27;19935;-45
2022/12/12 04:47:56;;;;;;;;;;;;;;;18.23;41.58;100735.59;5140954;27;19927;-43
2022/12/12 04:50:22;;;;;;;;;;;;;;;18.23;41.80;100746.63;5133510;28;19999;-43
2022/12/12 04:52:48;;;;;;;;;;;;;;;18.23;41.56;100733.66;5133404;28;19962;-43
2022/12/12 04:55:16;;;;;;;;;;;;;;;18.23;41.76;100730.91;5133338;27;19931;-44
2022/12/12 04:57:43;;;;;;;;;;;;;;;18.22;41.57;100731.16;5114939;28;20049;-43
2022/12/12 05:00:09;;;;;;;;;;;;;;;18.22;41.80;100743.03;5109777;27;19966;-43
2022/12/12 05:02:54;;;;;;;;;;;;;;;18.22;41.68;100739.44;5135547;27;19962;-44
2022/12/12 05:05:24;;;;;;;;;;;;;;;18.23;41.78;100732.84;5121307;28;19967;-44
2022/12/12 05:07:52;;;;;;;;;;;;;;;18.22;41.57;100733.94;5133209;28;19973;-45
2022/12/12 05:10:17;;;;;;;;;;;;;;;18.22;41.62;100745.81;5132914;28;19969;-43
2022/12/12 05:12:45;;;;;;;;;;;;;;;18.22;41.73;100734.78;5132617;28;19923;-44
2022/12/12 05:15:11;;;;;;;;;;;;;;;18.22;41.49;100742.19;5124827;27;19966;-43
2022/12/12 05:17:40;;;;;;;;;;;;;;;18.22;41.57;100745.81;5139427;27;19923;-44
2022/12/12 05:20:06;;;;;;;;;;;;;;;18.22;41.78;100748.56;5147661;27;20371;-43
2022/12/12 05:22:31;;;;;;;;;;;;;;;18.22;41.57;100745.81;5132174;28;19948;-43
2022/12/12 05:24:57;;;;;;;;;;;;;;;18.23;41.66;100746.63;5144296;27;19923;-45
2022/12/12 05:27:22;;;;;;;;;;;;;;;18.22;41.79;100748.56;5146137;27;19931;-45
2022/12/12 05:29:48;;;;;;;;;;;;;;;18.22;41.71;100750.47;5128286;27;20490;-43
2022/12/12 05:32:13;;;;;;;;;;;;;;;18.23;41.75;100746.63;5133862;27;19923;-43
2022/12/12 05:34:39;;;;;;;;;;;;;;;18.22;41.87;100748.56;5141842;27;19929;-43
2022/12/12 05:37:05;;;;;;;;;;;;;;;18.22;41.53;100742.19;5147052;27;19923;-44
2022/12/12 05:39:30;;;;;;;;;;;;;;;18.22;41.57;100750.47;5114742;28;20398;-44
2022/12/12 05:41:56;;;;;;;;;;;;;;;18.23;41.69;100750.19;5121768;27;19927;-43
2022/12/12 05:44:21;;;;;;;;;;;;;;;18.22;41.71;100748.56;5131525;27;19923;-43
2022/12/12 05:46:47;;;;;;;;;;;;;;;18.23;41.80;100754.91;5127878;27;20414;-46
2022/12/12 05:49:12;;;;;;;;;;;;;;;18.22;41.70;100755.97;5127055;28;20093;-45
2022/12/12 05:51:38;;;;;;;;;;;;;;;18.22;41.63;100751.31;5129039;27;19931;-45
2022/12/12 05:54:04;;;;;;;;;;;;;;;18.23;41.80;100754.91;5125931;27;19923;-45
2022/12/12 05:56:29;;;;;;;;;;;;;;;18.22;41.67;100751.31;5122156;28;19930;-43
2022/12/12 05:58:55;;;;;;;;;;;;;;;18.22;41.62;100755.97;5122653;27;19928;-44
2022/12/12 06:01:20;;;;;;;;;;;;;;;18.22;41.45;100758.72;5121536;28;20295;-43
2022/12/12 06:03:46;;;;;;;;;;;;;;;18.22;41.68;100765.09;5125138;27;19924;-43
2022/12/12 06:06:12;;;;;;;;;;;;;;;18.22;41.71;100767.00;5123865;27;19931;-42
2022/12/12 06:08:37;;;;;;;;;;;;;;;18.22;41.57;100765.09;5102662;27;20364;-43
2022/12/12 06:11:04;;;;;;;;;;;;;;;18.22;41.71;100758.72;5134876;27;19939;-44
2022/12/12 06:13:29;;;;;;;;;;;;;;;18.23;41.81;100760.41;5121097;27;19966;-46
2022/12/12 06:15:55;;;;;;;;;;;;;;;18.22;41.65;100762.34;5130097;27;19923;-44
2022/12/12 06:18:20;;;;;;;;;;;;;;;18.22;41.71;100776.13;5132262;27;20389;-48
2022/12/12 06:20:46;;;;;;;;;;;;;;;18.22;41.79;100770.63;5126222;28;20268;-43
2022/12/12 06:23:11;;;;;;;;;;;;;;;18.22;41.58;100775.28;5126123;28;19923;-44
2022/12/12 06:25:37;;;;;;;;;;;;;;;18.22;41.55;100776.13;5124337;27;19928;-43
2022/12/12 06:28:03;;;;;;;;;;;;;;;18.22;41.67;100784.41;5132818;27;19927;-43
2022/12/12 06:30:28;;;;;;;;;;;;;;;18.24;41.62;100792.38;5129680;27;20387;-43
2022/12/12 06:32:54;;;;;;;;;;;;;;;18.23;41.70;100799.00;5131590;27;20074;-43
2022/12/12 06:35:19;;;;;;;;;;;;;;;18.23;41.58;100790.72;5130924;27;19924;-43
2022/12/12 06:37:47;;;;;;;;;;;;;;;18.22;41.81;100794.56;5131532;27;20355;-43
2022/12/12 06:40:12;;;;;;;;;;;;;;;18.22;41.71;100803.69;5126585;28;19977;-44
2022/12/12 06:42:38;;;;;;;;;;;;;;;18.23;41.63;100799.00;5122594;28;19923;-44
2022/12/12 06:45:11;;;;;;;;;;;;;;;18.22;41.72;100802.84;5125871;27;20018;-44
2022/12/12 06:47:37;;;;;;;;;;;;;;;18.22;41.64;100800.94;5130850;27;20376;-44
2022/12/12 06:50:03;;;;;;;;;;;;;;;18.22;41.72;100806.44;5118319;27;19928;-43
2022/12/12 06:52:29;;;;;;;;;;;;;;;18.22;41.80;100806.44;5117357;28;19939;-44
2022/12/12 06:54:55;;;;;;;;;;;;;;;18.23;41.65;100816.38;5114894;27;20003;-43
2022/12/12 06:57:20;;;;;;;;;;;;;;;18.23;41.78;100810.03;5111754;28;19928;-46
2022/12/12 06:59:48;;;;;;;;;;;;;;;18.24;41.74;100808.91;5108281;27;19927;-42
2022/12/12 07:02:14;;;;;;;;;;;;;;;18.23;41.75;100810.03;5104603;27;20064;-43
2022/12/12 07:04:40;;;;;;;;;;;;;;;18.22;41.59;100814.72;5109477;27;20031;-42
2022/12/12 07:07:05;;;;;;;;;;;;;;;18.22;41.66;100817.47;5106116;27;19932;-44
2022/12/12 07:09:31;;;;;;;;;;;;;;;18.23;41.76;100821.06;5103994;27;19927;-43
2022/12/12 07:11:56;;;;;;;;;;;;;;;18.23;41.55;100823.81;5114135;27;19931;-44
2022/12/12 07:14:22;;;;;;;;;;;;;;;18.23;41.80;100821.06;5111448;27;19928;-44
2022/12/12 07:16:47;;;;;;;;;;;;;;;18.22;41.57;100828.50;5123482;27;19924;-44
2022/12/12 07:19:13;;;;;;;;;;;;;;;18.22;41.63;100828.50;5112399;27;19923;-45
2022/12/12 07:21:38;;;;;;;;;;;;;;;18.22;41.70;100817.47;5121302;27;19945;-43
2022/12/12 07:24:04;;;;;;;;;;;;;;;18.22;41.61;100822.97;5122256;27;19930;-45
2022/12/12 07:26:30;;;;;;;;;;;;;;;18.21;41.52;100821.31;5121253;28;19930;-42
2022/12/12 07:28:55;;;;;;;;;;;;;;;18.22;41.78;100825.75;5115227;27;19951;-44
2022/12/12 07:31:21;;;;;;;;;;;;;;;18.22;41.73;100824.88;5112311;27;19984;-43
2022/12/12 07:33:47;;;;;;;;;;;;;;;18.22;41.56;100827.63;5112638;27;19968;-43
2022/12/12 07:36:13;;;;;;;;;;;;;;;18.24;41.64;100830.97;5113532;27;19928;-44
2022/12/12 07:38:38;;;;;;;;;;;;;;;18.23;41.67;100832.06;5112475;27;20390;-44
2022/12/12 07:41:06;;;;;;;;;;;;;;;18.22;41.67;100828.50;5119599;27;20380;-43
2022/12/12 07:43:33;;;;;;;;;;;;;;;18.22;41.72;100831.25;5103436;28;19966;-47
2022/12/12 07:46:05;;;;;;;;;;;;;;;18.22;41.54;100831.25;5107031;28;19923;-45
2022/12/12 07:48:31;;;;;;;;;;;;;;;18.23;41.66;100835.66;5117436;27;19927;-44
2022/12/12 07:50:58;;;;;;;;;;;;;;;18.22;41.49;100839.53;5108928;27;20372;-43
2022/12/12 07:53:24;;;;;;;;;;;;;;;18.22;41.58;100839.53;5116843;27;19970;-44
2022/12/12 07:55:49;;;;;;;;;;;;;;;18.22;41.60;100846.94;5120121;27;19931;-45
2022/12/12 07:58:15;;;;;;;;;;;;;;;18.23;41.62;100851.38;5107385;27;20459;-43
2022/12/12 08:00:41;;;;;;;;;;;;;;;18.23;41.59;100851.38;5109529;27;19924;-46
2022/12/12 08:03:06;;;;;;;;;;;;;;;18.24;41.64;100840.06;5090858;27;19959;-44
2022/12/12 08:05:32;;;;;;;;;;;;;;;18.23;41.57;100849.44;5109910;27;19934;-43
2022/12/12 08:07:57;;;;;;;;;;;;;;;18.24;41.39;100842.00;5104366;27;20492;-43
2022/12/12 08:10:23;;;;;;;;;;;;;;;18.23;41.49;100835.66;5104129;27;19939;-43
2022/12/12 08:12:49;;;;;;;;;;;;;;;18.23;41.47;100843.09;5095333;27;19940;-43
2022/12/12 08:15:15;;;;;;;;;;;;;;;18.23;41.49;100841.16;5105862;27;19924;-43
2022/12/12 08:17:41;;;;;;;;;;;;;;;18.23;41.64;100843.09;5088224;27;19980;-43
2022/12/12 08:20:07;;;;;;;;;;;;;;;18.22;41.38;100839.53;5089078;28;19927;-45
2022/12/12 08:22:33;;;;;;;;;;;;;;;18.23;41.52;100845.84;5101248;27;20356;-44
2022/12/12 08:24:58;;;;;;;;;;;;;;;18.23;41.32;100851.38;5107406;27;19924;-44
2022/12/12 08:27:24;;;;;;;;;;;;;;;18.22;41.57;100847.78;5118873;27;19935;-43
2022/12/12 08:29:50;;;;;;;;;;;;;;;18.23;41.52;100859.63;5091374;28;19931;-43
2022/12/12 08:32:16;;;;;;;;;;;;;;;18.23;41.40;100859.63;5110649;27;19974;-44
2022/12/12 08:34:41;;;;;;;;;;;;;;;18.22;41.37;100861.56;5112321;27;20273;-43
2022/12/12 08:37:07;;;;;;;;;;;;;;;18.22;41.30;100856.06;5121152;27;19968;-43
2022/12/12 08:39:32;;;;;;;;;;;;;;;18.23;41.22;100870.66;5110052;27;19932;-43
2022/12/12 08:41:59;;;;;;;;;;;;;;;18.23;41.50;100859.63;5116922;27;19993;-44
2022/12/12 08:44:24;;;;;;;;;;;;;;;18.22;41.45;100864.34;5114960;27;19966;-44
2022/12/12 08:46:50;;;;;;;;;;;;;;;18.22;41.31;100875.34;5094575;27;20291;-43
2022/12/12 08:49:15;;;;;;;;;;;;;;;18.23;41.29;100873.44;5118218;27;19935;-43
2022/12/12 08:51:41;;;;;;;;;;;;;;;18.22;41.48;100872.59;5118220;28;19934;-44
2022/12/12 08:54:07;;;;;;;;;;;;;;;18.22;41.37;100877.25;5117880;27;19930;-44
2022/12/12 08:56:32;;;;;;;;;;;;;;;18.22;41.38;100874.50;5107263;27;19927;-43
2022/12/12 08:58:58;;;;;;;;;;;;;;;18.23;41.55;100876.19;5092708;28;19924;-44
2022/12/12 09:01:24;;;;;;;;;;;;;;;18.22;41.35;100875.34;5109890;27;20171;-43
2022/12/12 09:03:50;;;;;;;;;;;;;;;18.20;41.50;100880.31;5114619;27;19923;-43
2022/12/12 09:06:16;;;;;;;;;;;;;;;18.30;41.36;100883.03;5108394;27;20028;-41
2022/12/12 09:08:41;;;;;;;;;;;;;;;18.34;41.80;100880.56;5097151;27;20095;-38
2022/12/12 09:11:07;;;;;;;;;;;;;;;18.33;41.31;100889.94;5112406;27;20511;-38
2022/12/12 09:13:33;;;;;;;;;;;;;;;18.33;42.23;100881.69;5084877;27;19941;-37
2022/12/12 09:15:58;;;;;;;;;;;;;;;18.34;43.51;100882.50;5108600;27;19973;-37
2022/12/12 09:18:24;;;;;;;;;;;;;;;18.37;43.05;100884.72;5107854;27;19931;-40
2022/12/12 09:20:50;;;;;;;;;;;;;;;18.36;43.55;100891.34;5090435;28;19934;-40
2022/12/12 09:23:16;;;;;;;;;;;;;;;18.34;43.71;100888.03;5113437;28;20543;-40
2022/12/12 09:25:42;;;;;;;;;;;;;;;18.29;38.74;100895.19;5110525;27;20015;-57
2022/12/12 09:28:08;;;;;;;;;;;;;;;18.34;42.08;100885.25;5088159;28;19935;-40
2022/12/12 09:30:34;;;;;;;;;;;;;;;18.39;43.12;100886.06;5106134;27;20015;-40
2022/12/12 09:32:59;;;;;;;;;;;;;;;18.40;44.05;100889.69;5106122;27;19930;-40
2022/12/12 09:35:25;;;;;;;;;;;;;;;18.43;43.97;100881.66;5103879;27;19932;-40
2022/12/12 09:37:52;;;;;;;;;;;;;;;18.43;44.27;100886.34;5096743;27;19939;-40
2022/12/12 09:40:18;;;;;;;;;;;;;;;18.42;44.84;100884.72;5085456;27;20153;-41
2022/12/12 09:42:46;;;;;;;;;;;;;;;18.44;42.95;100879.75;5109168;27;19960;-40
2022/12/12 09:45:11;;;;;;;;;;;;;;;18.46;41.93;100878.38;5112842;27;19963;-43
2022/12/12 09:47:39;;;;;;;;;;;;;;;18.46;43.31;100886.63;5110815;27;19924;-41
2022/12/12 09:50:10;;;;;;;;;;;;;;;18.45;43.73;100887.75;5090607;28;19963;-42
2022/12/12 09:52:35;;;;;;;;;;;;;;;18.45;43.86;100885.00;5093358;27;20014;-40
2022/12/12 09:55:03;;;;;;;;;;;;;;;18.44;43.86;100893.56;5110652;27;19928;-40
2022/12/12 09:57:30;;;;;;;;;;;;;;;18.44;43.85;100893.56;5100124;28;19924;-41
2022/12/12 10:00:01;;;;;;;;;;;;;;;18.47;42.30;100896.56;5109377;27;20447;-40
2022/12/12 10:02:31;;;;;;;;;;;;;;;18.50;42.11;100889.66;5114483;27;19985;-41
2022/12/12 10:05:16;;;;;;;;;;;;;;;18.51;43.19;100886.63;5112496;27;20398;-42
2022/12/12 10:07:46;;;;;;;;;;;;;;;17.99;34.27;100897.91;5101245;28;20254;-49
2022/12/12 10:10:29;;;;;;;;;;;;;;;17.72;34.90;100896.19;5107947;27;19923;-51
2022/12/12 10:12:55;;;;;;;;;;;;;;;17.28;34.68;100888.34;5095528;28;19963;-53
2022/12/12 10:15:24;;;;;;;;;;;;;;;17.75;36.58;100881.91;5096631;28;20010;-44
2022/12/12 10:17:49;;;;;;;;;;;;;;;17.63;35.30;100888.72;5088730;28;19958;-56
2022/12/12 10:20:19;;;;;;;;;;;;;;;17.24;35.16;100887.22;5105876;27;19939;-63
2022/12/12 10:23:05;;;;;;;;;;;;;;;17.44;35.75;100885.63;5109955;27;19969;-61
2022/12/12 10:25:50;;;;;;;;;;;;;;;17.97;38.16;100886.38;5094117;27;19970;-44
2022/12/12 10:28:16;;;;;;;;;;;;;;;17.94;34.93;100884.16;5098136;28;19967;-56
2022/12/12 10:31:02;;;;;;;;;;;;;;;18.20;37.83;100891.31;5110966;27;20069;-45
2022/12/12 10:33:34;;;;;;;;;;;;;;;18.33;37.96;100884.44;5098089;27;20014;-47
2022/12/12 10:36:20;;;;;;;;;;;;;;;18.39;36.59;100882.50;5107644;27;19962;-46
2022/12/12 10:38:50;;;;;;;;;;;;;;;18.42;36.56;100881.94;5076057;27;20023;-45
2022/12/12 10:41:22;;;;;;;;;;;;;;;18.44;36.36;100874.25;5098509;27;20338;-45
2022/12/12 10:43:50;;;;;;;;;;;;;;;18.45;36.32;100881.41;5099319;27;20395;-44
2022/12/12 10:46:22;;;;;;;;;;;;;;;18.45;36.84;100879.47;5088952;27;19924;-46
2022/12/12 10:48:47;;;;;;;;;;;;;;;18.48;36.70;100875.31;5107644;27;19930;-45
2022/12/12 10:51:14;;;;;;;;;;;;;;;18.46;36.38;100872.84;5102468;27;19931;-45
2022/12/12 10:53:39;;;;;;;;;;;;;;;18.48;36.72;100865.16;5094592;27;20494;-46
2022/12/12 10:56:21;;;;;;;;;;;;;;;18.49;38.28;100864.03;5098417;28;19923;-45
2022/12/12 10:58:51;;;;;;;;;;;;;;;18.37;36.36;100869.00;5105456;27;19970;-45
2022/12/12 11:01:17;;;;;;;;;;;;;;;18.48;38.86;100864.28;5082307;27;20023;-45
2022/12/12 11:03:44;;;;;;;;;;;;;;;18.50;38.35;100854.66;5087192;27;21442;-46
2022/12/12 11:06:11;;;;;;;;;;;;;;;18.50;37.20;100860.16;5099131;27;20047;-45
2022/12/12 11:08:37;;;;;;;;;;;;;;;18.52;39.19;100846.09;5105799;27;20438;-47
2022/12/12 11:11:05;;;;;;;;;;;;;;;18.51;39.71;100847.19;5104852;27;19980;-45
2022/12/12 11:13:31;;;;;;;;;;;;;;;18.52;37.87;100854.34;5110586;27;19963;-44
2022/12/12 11:15:58;;;;;;;;;;;;;;;18.53;38.05;100845.00;5102713;27;20171;-46
2022/12/12 11:18:24;;;;;;;;;;;;;;;18.22;35.41;100852.44;5110091;27;19990;-46
2022/12/12 11:20:51;;;;;;;;;;;;;;;18.40;38.80;100851.91;5095015;27;20646;-45
2022/12/12 11:23:18;;;;;;;;;;;;;;;18.48;37.83;100847.75;5113515;27;19972;-45
2022/12/12 11:25:43;;;;;;;;;;;;;;;18.50;39.34;100853.81;5117189;27;20537;-46
2022/12/12 11:28:11;;;;;;;;;;;;;;;18.51;39.22;100853.53;5112868;27;20032;-46
2022/12/12 11:30:37;;;;;;;;;;;;;;;18.52;39.53;100852.44;5114721;27;20462;-46
2022/12/12 11:33:02;;;;;;;;;;;;;;;18.53;37.80;100851.34;5093479;28;20264;-46
2022/12/12 11:35:29;;;;;;;;;;;;;;;18.54;39.58;100850.22;5112125;27;19929;-45
2022/12/12 11:37:57;;;;;;;;;;;;;;;18.54;39.11;100844.72;5109767;27;20026;-46
2022/12/12 11:40:26;;;;;;;;;;;;;;;18.55;38.13;100840.03;5110902;27;20023;-45
2022/12/12 11:43:04;;;;;;;;;;;;;;;18.55;39.40;100846.34;5104346;27;20037;-45
2022/12/12 11:45:30;;;;;;;;;;;;;;;18.56;38.16;100838.91;5084852;28;20321;-45
2022/12/12 11:47:55;;;;;;;;;;;;;;;18.56;38.19;100836.97;5102102;27;19931;-46
2022/12/12 11:50:22;;;;;;;;;;;;;;;18.57;39.84;100832.31;5106084;27;19927;-45
2022/12/12 11:52:49;;;;;;;;;;;;;;;18.56;40.00;100834.22;5101284;27;20021;-45
2022/12/12 11:55:15;;;;;;;;;;;;;;;17.99;35.66;100834.53;5082069;27;20020;-46
2022/12/12 11:57:47;;;;;;;;;;;;;;;18.35;38.75;100838.13;5089308;28;19978;-45
2022/12/12 12:00:16;;;;;;;;;;;;;;;18.47;38.71;100829.56;5113698;27;20423;-45
2022/12/12 12:02:50;;;;;;;;;;;;;;;18.52;36.98;100827.63;5110822;27;20018;-47
2022/12/12 12:07:59;;;;;;;;;;;;;;;18.60;38.42;100822.63;5147253;27;19934;-44
2022/12/12 12:13:35;;;;;;;;;;;;;;;17.89;35.57;100827.09;5153613;27;19930;-44
2022/12/12 12:16:20;;;;;;;;;;;;;;;18.41;37.08;100828.75;5130852;27;19981;-44
2022/12/12 12:18:53;;;;;;;;;;;;;;;18.55;37.56;100826.22;5144715;27;19923;-43
2022/12/12 12:21:25;;;;;;;;;;;;;;;18.63;37.99;100819.31;5142420;27;20022;-44
2022/12/12 12:24:01;;;;;;;;;;;;;;;18.67;38.03;100807.44;5145435;27;20030;-44
2022/12/12 12:26:35;;;;;;;;;;;;;;;18.67;37.57;100812.16;5141591;27;20045;-46
2022/12/12 12:29:03;;;;;;;;;;;;;;;18.62;37.29;100813.00;5139246;27;19980;-45
2022/12/12 12:31:31;;;;;;;;;;;;;;;18.50;38.45;100812.47;5142072;27;19966;-46
2022/12/12 12:34:01;;;;;;;;;;;;;;;18.47;35.88;100818.53;5132498;27;20219;-47
2022/12/12 12:36:34;;;;;;;;;;;;;;;18.60;36.56;100819.88;5137705;27;20365;-45
2022/12/12 12:39:03;;;;;;;;;;;;;;;18.65;37.57;100812.44;5139131;27;20049;-45
2022/12/12 12:41:48;;;;;;;;;;;;;;;18.67;37.00;100815.72;5127577;27;19979;-45
2022/12/12 12:44:30;;;;;;;;;;;;;;;18.69;37.63;100809.91;5125053;27;20027;-46
2022/12/12 12:46:59;;;;;;;;;;;;;;;18.70;37.85;100808.88;5124470;27;20045;-47
2022/12/12 12:49:26;;;;;;;;;;;;;;;18.70;39.70;100804.16;5146030;27;20022;-45
2022/12/12 12:51:54;;;;;;;;;;;;;;;18.72;39.13;100809.41;5130291;27;20387;-45
2022/12/12 12:54:24;;;;;;;;;;;;;;;18.71;37.55;100805.81;5147378;27;19931;-46
2022/12/12 12:56:52;;;;;;;;;;;;;;;18.72;39.39;100809.41;5148511;27;19959;-47
2022/12/12 12:59:20;;;;;;;;;;;;;;;18.73;37.79;100808.28;5127910;27;19950;-46
2022/12/12 13:01:47;;;;;;;;;;;;;;;18.71;39.95;100805.81;5123451;27;20386;-45